メインページ
METAR-TAF:

METAR-TAF

空港 :

ロサンゼルス, カリフォルニア州, アメリカ合衆国

ロサンゼルス国際空港

緯度: 33-56-17N, 経度: 118-23-20W, 海抜: 38m

現時点の気象観測

当レポートは41分前の00:53(UTC)に作成
西/南西の風 16kt、最大24ktの突風を伴う
気温 18°C
湿度 64%
気圧 1010 hPa
視程: 16.1km
高度20000ftの雲はほとんどない
高度25000ftの雲はほとんどない

METAR: KLAX 240053Z 25016G24KT 10SM FEW200 FEW250 18/11 A2983 RMK AO2 SLP099 T01830111

時間: 18:34 (01:34 UTC)

予報

当レポートは1時間55分前の23:39(UTC)に作成
予報は24日の 00時(UTC)から 25日の 06時(UTC)まで有効
西の風 15kt
視程: 10km
高度20000ftの雲は散在している
24日の 0200時(UTC)から
西の風 9kt
視程: 10km
高度20000ftの雲は散在している
24日の 0600時(UTC)から
変向風 3kt
視程: 10km
高度20000ftの雲は散在している
24日の 1000時(UTC)から
変向風 3kt
視程: 10km
高度1200ftの曇り
24日の 1800時(UTC)から
西の風 9kt
視程: 10km
高度1700ftの雲は散在している
24日の 2100時(UTC)から
西の風 14kt
視程: 10km
高度20000ftの雲は散在している

TAF: KLAX 232339Z 2400/2506 26015KT P6SM SCT200 FM240200 26009KT P6SM SCT200 FM240600 VRB03KT P6SM SCT200 FM241000 VRB03KT P6SM OVC012 FM241800 26009KT P6SM SCT017 FM242100 26014KT P6SM SCT200

4,000以上の空港の気象観測と天気予報(METAR報とTAF報)

利用可能な観測所は地図上に黄色い丸と赤い丸で示す。

丸の上にカーソルを重ねると観測所名を参照できる。

次にクリックすると気象観測と天気予報を参照できる。

マップの切り替え:黒色「×」印の緑ボタンをクリックして拡大、「-」印の緑ボタンをクリックして縮小、緑色の三角印をクリックして隣りの地図に切り替え


METAR-TAF: